sensor_id;sensor_type;location;lat;lon;timestamp;pressure;altitude;pressure_sealevel;temperature;humidity
63622;BME280;49770;47.544;19.074;2022-09-09T04:47:37;100132.16;;;15.34;100.00
63622;BME280;49770;47.544;19.074;2022-09-09T04:50:42;100129.34;;;15.35;100.00
63622;BME280;49770;47.544;19.074;2022-09-09T05:04:55;100128.50;;;15.59;100.00
63622;BME280;49770;47.544;19.074;2022-09-09T05:11:17;100146.28;;;15.72;100.00
63622;BME280;49770;47.544;19.074;2022-09-09T05:14:21;100145.44;;;15.71;100.00
63622;BME280;49770;47.544;19.074;2022-09-09T05:17:25;100140.31;;;15.68;100.00
63622;BME280;49770;47.544;19.074;2022-09-09T05:20:28;100153.53;;;16.41;100.00
63622;BME280;49770;47.544;19.074;2022-09-09T05:23:30;100149.69;;;17.03;100.00
63622;BME280;49770;47.544;19.074;2022-09-09T05:26:34;100145.06;;;17.05;100.00
63622;BME280;49770;47.544;19.074;2022-09-09T05:29:37;100145.78;;;17.07;100.00
63622;BME280;49770;47.544;19.074;2022-09-09T05:32:41;100149.28;;;17.19;100.00
63622;BME280;49770;47.544;19.074;2022-09-09T05:35:44;100159.31;;;17.61;100.00
63622;BME280;49770;47.544;19.074;2022-09-09T05:38:47;100151.72;;;17.66;100.00
63622;BME280;49770;47.544;19.074;2022-09-09T05:41:50;100152.53;;;17.78;100.00
63622;BME280;49770;47.544;19.074;2022-09-09T05:44:53;100148.25;;;17.75;100.00
63622;BME280;49770;47.544;19.074;2022-09-09T05:47:56;100155.03;;;17.91;100.00
63622;BME280;49770;47.544;19.074;2022-09-09T05:51:00;100154.12;;;18.02;100.00
63622;BME280;49770;47.544;19.074;2022-09-09T05:54:04;100157.12;;;17.87;100.00
63622;BME280;49770;47.544;19.074;2022-09-09T05:57:08;100150.62;;;17.69;100.00
63622;BME280;49770;47.544;19.074;2022-09-09T06:03:49;100154.84;;;17.50;100.00
63622;BME280;49770;47.544;19.074;2022-09-09T06:06:53;100153.94;;;17.94;100.00
63622;BME280;49770;47.544;19.074;2022-09-09T06:09:56;100144.25;;;18.02;100.00
63622;BME280;49770;47.544;19.074;2022-09-09T06:12:59;100161.50;;;18.21;100.00
63622;BME280;49770;47.544;19.074;2022-09-09T06:16:02;100161.88;;;18.16;100.00
63622;BME280;49770;47.544;19.074;2022-09-09T06:19:05;100168.09;;;18.38;100.00
63622;BME280;49770;47.544;19.074;2022-09-09T06:22:08;100165.94;;;18.63;100.00
63622;BME280;49770;47.544;19.074;2022-09-09T06:25:14;100161.78;;;18.49;100.00
63622;BME280;49770;47.544;19.074;2022-09-09T06:28:18;100165.38;;;18.91;100.00
63622;BME280;49770;47.544;19.074;2022-09-09T06:31:23;100171.72;;;19.21;100.00
63622;BME280;49770;47.544;19.074;2022-09-09T06:34:32;100168.81;;;19.03;100.00
63622;BME280;49770;47.544;19.074;2022-09-09T06:37:35;100169.56;;;19.05;100.00
63622;BME280;49770;47.544;19.074;2022-09-09T06:40:39;100179.13;;;19.38;100.00
63622;BME280;49770;47.544;19.074;2022-09-09T06:43:42;100175.72;;;19.56;97.65
63622;BME280;49770;47.544;19.074;2022-09-09T06:46:47;100170.97;;;19.19;100.00
63622;BME280;49770;47.544;19.074;2022-09-09T06:49:50;100169.31;;;19.28;100.00
63622;BME280;49770;47.544;19.074;2022-09-09T06:52:53;100171.97;;;19.18;100.00
63622;BME280;49770;47.544;19.074;2022-09-09T06:55:56;100171.41;;;19.14;99.86
63622;BME280;49770;47.544;19.074;2022-09-09T06:59:01;100170.62;;;19.43;98.10
63622;BME280;49770;47.544;19.074;2022-09-09T07:02:05;100165.94;;;19.45;97.02
63622;BME280;49770;47.544;19.074;2022-09-09T07:05:08;100167.81;;;19.45;98.39
63622;BME280;49770;47.544;19.074;2022-09-09T07:08:11;100183.75;;;19.26;97.73
63622;BME280;49770;47.544;19.074;2022-09-09T07:11:15;100185.78;;;19.54;96.95
63622;BME280;49770;47.544;19.074;2022-09-09T07:14:18;100190.16;;;19.65;95.87
63622;BME280;49770;47.544;19.074;2022-09-09T07:17:22;100187.84;;;19.21;99.10
63622;BME280;49770;47.544;19.074;2022-09-09T07:20:26;100193.31;;;18.78;99.98
63622;BME280;49770;47.544;19.074;2022-09-09T07:23:40;100182.28;;;18.50;100.00
63622;BME280;49770;47.544;19.074;2022-09-09T07:26:46;100177.84;;;19.52;98.94
63622;BME280;49770;47.544;19.074;2022-09-09T07:29:50;100181.53;;;20.78;91.97
63622;BME280;49770;47.544;19.074;2022-09-09T07:32:53;100184.06;;;20.90;87.83
63622;BME280;49770;47.544;19.074;2022-09-09T07:36:06;100186.75;;;22.18;82.35
63622;BME280;49770;47.544;19.074;2022-09-09T07:39:13;100190.38;;;23.23;76.08
63622;BME280;49770;47.544;19.074;2022-09-09T07:42:16;100190.63;;;24.80;66.76
63622;BME280;49770;47.544;19.074;2022-09-09T07:45:19;100192.28;;;24.07;70.17
63622;BME280;49770;47.544;19.074;2022-09-09T07:48:22;100194.34;;;23.37;74.87
63622;BME280;49770;47.544;19.074;2022-09-09T07:51:31;100201.91;;;24.18;73.46
63622;BME280;49770;47.544;19.074;2022-09-09T08:16:40;100199.47;;;27.22;55.91
63622;BME280;49770;47.544;19.074;2022-09-09T08:23:45;100194.81;;;27.75;53.20
63622;BME280;49770;47.544;19.074;2022-09-09T08:37:58;100194.34;;;26.05;61.73
63622;BME280;49770;47.544;19.074;2022-09-09T10:01:46;100167.25;;;29.05;45.65
63622;BME280;49770;47.544;19.074;2022-09-09T10:08:44;100178.12;;;29.61;42.31
63622;BME280;49770;47.544;19.074;2022-09-09T10:15:32;100155.69;;;32.53;37.04
63622;BME280;49770;47.544;19.074;2022-09-09T10:52:46;100155.03;;;34.35;33.34
63622;BME280;49770;47.544;19.074;2022-09-09T10:59:47;100151.44;;;36.26;27.28
63622;BME280;49770;47.544;19.074;2022-09-09T11:02:56;100151.50;;;33.80;31.21
63622;BME280;49770;47.544;19.074;2022-09-09T11:06:05;100140.41;;;31.63;34.23
63622;BME280;49770;47.544;19.074;2022-09-09T11:09:16;100148.19;;;31.33;36.83
63622;BME280;49770;47.544;19.074;2022-09-09T11:19:50;100137.97;;;31.09;36.30
63622;BME280;49770;47.544;19.074;2022-09-09T11:23:03;100130.19;;;32.27;33.90
63622;BME280;49770;47.544;19.074;2022-09-09T11:26:12;100127.28;;;31.00;36.00
63622;BME280;49770;47.544;19.074;2022-09-09T11:29:50;100129.09;;;30.54;37.55
63622;BME280;49770;47.544;19.074;2022-09-09T11:40:14;100130.00;;;29.53;40.50
63622;BME280;49770;47.544;19.074;2022-09-09T11:43:43;100123.84;;;29.38;40.59
63622;BME280;49770;47.544;19.074;2022-09-09T11:46:51;100124.72;;;28.47;42.66
63622;BME280;49770;47.544;19.074;2022-09-09T11:49:54;100124.63;;;28.69;40.84
63622;BME280;49770;47.544;19.074;2022-09-09T11:56:43;100107.53;;;28.89;41.15
63622;BME280;49770;47.544;19.074;2022-09-09T11:59:51;100104.72;;;29.38;39.31
63622;BME280;49770;47.544;19.074;2022-09-09T12:02:57;100110.78;;;29.26;38.54
63622;BME280;49770;47.544;19.074;2022-09-09T12:06:09;100112.94;;;28.40;40.75
63622;BME280;49770;47.544;19.074;2022-09-09T12:12:41;100108.06;;;26.83;42.48
63622;BME280;49770;47.544;19.074;2022-09-09T12:15:56;100106.84;;;27.37;42.69
63622;BME280;49770;47.544;19.074;2022-09-09T12:19:21;100115.28;;;27.64;42.47
63622;BME280;49770;47.544;19.074;2022-09-09T12:32:25;100119.72;;;26.91;43.59
63622;BME280;49770;47.544;19.074;2022-09-09T12:35:29;100114.03;;;27.23;41.58
63622;BME280;49770;47.544;19.074;2022-09-09T12:38:39;100106.03;;;26.85;44.45
63622;BME280;49770;47.544;19.074;2022-09-09T12:41:51;100100.22;;;27.47;42.22
63622;BME280;49770;47.544;19.074;2022-09-09T12:45:00;100103.09;;;27.60;41.01
63622;BME280;49770;47.544;19.074;2022-09-09T12:48:09;100095.25;;;27.72;41.03
63622;BME280;49770;47.544;19.074;2022-09-09T12:51:41;100095.50;;;27.77;41.28
63622;BME280;49770;47.544;19.074;2022-09-09T12:54:46;100089.72;;;27.22;41.01
63622;BME280;49770;47.544;19.074;2022-09-09T12:57:50;100093.66;;;26.82;42.12
63622;BME280;49770;47.544;19.074;2022-09-09T13:00:55;100081.47;;;26.48;42.04
63622;BME280;49770;47.544;19.074;2022-09-09T13:03:59;100084.94;;;26.72;42.42
63622;BME280;49770;47.544;19.074;2022-09-09T13:07:06;100078.34;;;26.96;42.37
63622;BME280;49770;47.544;19.074;2022-09-09T13:10:13;100065.25;;;27.07;43.14
63622;BME280;49770;47.544;19.074;2022-09-09T13:13:36;100066.66;;;26.66;42.35
63622;BME280;49770;47.544;19.074;2022-09-09T13:16:41;100051.47;;;26.56;42.23
63622;BME280;49770;47.544;19.074;2022-09-09T13:19:44;100054.50;;;26.83;41.89
63622;BME280;49770;47.544;19.074;2022-09-09T13:22:49;100050.28;;;26.96;41.97
63622;BME280;49770;47.544;19.074;2022-09-09T13:25:54;100051.59;;;27.00;42.07
63622;BME280;49770;47.544;19.074;2022-09-09T13:29:16;100042.50;;;26.93;41.63
63622;BME280;49770;47.544;19.074;2022-09-09T13:32:23;100036.22;;;27.14;40.66
63622;BME280;49770;47.544;19.074;2022-09-09T13:35:27;100034.06;;;26.87;40.16
63622;BME280;49770;47.544;19.074;2022-09-09T13:41:53;100047.16;;;26.17;44.76
63622;BME280;49770;47.544;19.074;2022-09-09T13:44:56;100037.66;;;26.58;41.48
63622;BME280;49770;47.544;19.074;2022-09-09T13:48:09;100039.75;;;26.56;42.75
63622;BME280;49770;47.544;19.074;2022-09-09T13:51:33;100044.44;;;26.62;40.47
63622;BME280;49770;47.544;19.074;2022-09-09T13:54:40;100034.66;;;26.53;42.53
63622;BME280;49770;47.544;19.074;2022-09-09T14:00:57;100033.87;;;26.37;43.22
63622;BME280;49770;47.544;19.074;2022-09-09T14:04:15;100021.50;;;26.34;42.17
63622;BME280;49770;47.544;19.074;2022-09-09T14:07:18;100014.56;;;26.84;41.86
63622;BME280;49770;47.544;19.074;2022-09-09T14:33:35;99998.41;;;25.70;45.67
63622;BME280;49770;47.544;19.074;2022-09-09T14:36:37;100001.56;;;25.59;45.67
